createdAt,value
2024-01-22T00:01:54.654Z,10.45
2024-01-22T00:04:22.630Z,5.68
2024-01-22T00:06:53.321Z,6.55
2024-01-22T00:09:21.312Z,7.50
2024-01-22T00:11:49.149Z,8.38
2024-01-22T00:14:18.352Z,3.22
2024-01-22T00:16:46.164Z,8.68
2024-01-22T00:19:14.338Z,7.75
2024-01-22T00:21:43.735Z,5.55
2024-01-22T00:24:11.802Z,6.60
2024-01-22T00:26:39.786Z,7.90
2024-01-22T00:29:08.994Z,8.38
2024-01-22T00:31:38.229Z,9.35
2024-01-22T00:34:06.071Z,7.55
2024-01-22T00:36:33.857Z,5.65
2024-01-22T00:39:01.754Z,5.75
2024-01-22T00:41:29.551Z,6.22
2024-01-22T00:43:57.318Z,7.85
2024-01-22T00:46:25.152Z,4.75
2024-01-22T00:48:54.413Z,6.32
2024-01-22T00:51:22.418Z,7.00
2024-01-22T00:53:50.228Z,10.15
2024-01-22T00:56:18.084Z,8.95
2024-01-22T00:58:45.900Z,5.32
2024-01-22T01:01:13.711Z,6.22
2024-01-22T01:03:41.609Z,5.00
2024-01-22T01:06:10.860Z,6.15
2024-01-22T01:08:38.730Z,4.63
2024-01-22T01:11:06.476Z,6.60
2024-01-22T01:13:34.229Z,3.80
2024-01-22T01:16:02.646Z,6.25
2024-01-22T01:18:30.734Z,6.75
2024-01-22T01:20:58.701Z,5.53
2024-01-22T01:23:27.855Z,4.78
2024-01-22T01:25:55.630Z,6.88
2024-01-22T01:28:23.458Z,4.10
2024-01-22T01:30:51.310Z,4.28
2024-01-22T01:33:19.369Z,4.78
2024-01-22T01:35:47.405Z,5.38
2024-01-22T01:38:15.261Z,4.65
2024-01-22T01:40:44.586Z,8.20
2024-01-22T01:43:12.442Z,8.02
2024-01-22T01:45:40.280Z,5.90
2024-01-22T01:48:08.941Z,5.57
2024-01-22T01:50:36.915Z,4.10
2024-01-22T01:53:05.743Z,5.68
2024-01-22T01:55:33.813Z,10.43
2024-01-22T01:58:05.974Z,4.00
2024-01-22T02:00:35.157Z,2.83
2024-01-22T02:03:03.681Z,9.07
2024-01-22T02:05:31.757Z,5.53
2024-01-22T02:07:59.575Z,4.95
2024-01-22T02:10:29.624Z,6.13
2024-01-22T02:12:57.610Z,6.78
2024-01-22T02:15:26.712Z,6.40
2024-01-22T02:17:54.680Z,4.60
2024-01-22T02:20:22.473Z,3.95
2024-01-22T02:22:50.463Z,3.78
2024-01-22T02:25:19.652Z,4.70
2024-01-22T02:27:47.454Z,3.80
2024-01-22T02:30:15.797Z,7.07
2024-01-22T02:32:43.711Z,6.72
2024-01-22T02:35:11.577Z,5.85
2024-01-22T02:37:39.926Z,3.63
2024-01-22T02:40:08.679Z,5.72
2024-01-22T02:42:38.040Z,3.80
2024-01-22T02:45:06.360Z,4.43
2024-01-22T02:47:34.389Z,4.68
2024-01-22T02:50:02.695Z,4.68
2024-01-22T02:52:30.496Z,7.80
2024-01-22T02:54:58.234Z,4.60
2024-01-22T02:57:26.080Z,5.70
2024-01-22T02:59:55.369Z,5.30
2024-01-22T03:02:23.135Z,4.70
2024-01-22T03:04:51.042Z,5.40
2024-01-22T03:07:18.929Z,4.45
2024-01-22T03:09:46.810Z,4.68
2024-01-22T03:12:14.715Z,5.68
2024-01-22T03:14:42.635Z,4.68
2024-01-22T03:17:11.978Z,3.42
2024-01-22T03:19:39.854Z,4.70
2024-01-22T03:22:07.863Z,3.58
2024-01-22T03:24:35.692Z,3.25
2024-01-22T03:27:03.607Z,10.60
2024-01-22T03:29:31.512Z,6.88
2024-01-22T03:31:59.233Z,3.70
2024-01-22T03:34:28.364Z,4.68
2024-01-22T03:36:56.212Z,4.03
2024-01-22T03:39:24.121Z,3.95
2024-01-22T03:41:52.144Z,3.85
2024-01-22T03:44:20.069Z,3.42
2024-01-22T03:46:47.873Z,4.88
2024-01-22T03:49:15.893Z,4.95
2024-01-22T03:51:45.113Z,5.78
2024-01-22T03:54:12.958Z,5.57
2024-01-22T03:56:40.744Z,4.72
2024-01-22T03:59:08.527Z,2.88
2024-01-22T04:01:36.343Z,6.50
2024-01-22T04:04:04.427Z,3.90
2024-01-22T04:06:32.333Z,3.28
2024-01-22T04:09:01.620Z,4.00
2024-01-22T04:11:29.491Z,5.53
2024-01-22T04:13:57.264Z,4.85
2024-01-22T04:16:25.256Z,4.28
2024-01-22T04:18:53.146Z,6.15
2024-01-22T04:21:21.207Z,4.57
2024-01-22T04:23:49.116Z,5.78
2024-01-22T04:26:18.624Z,4.22
2024-01-22T04:31:14.122Z,3.92
2024-01-22T04:33:44.349Z,3.42
2024-01-22T04:36:12.428Z,5.93
2024-01-22T04:38:40.327Z,6.57
2024-01-22T04:41:08.120Z,4.70
2024-01-22T04:43:37.314Z,5.75
2024-01-22T04:46:05.358Z,5.22
2024-01-22T04:48:33.235Z,3.58
2024-01-22T04:51:01.439Z,5.45
2024-01-22T04:53:29.250Z,4.80
2024-01-22T04:55:57.001Z,6.82
2024-01-22T04:58:24.774Z,3.28
2024-01-22T05:00:54.265Z,2.67
2024-01-22T05:03:22.111Z,3.10
2024-01-22T05:05:49.993Z,4.53
2024-01-22T05:08:17.881Z,4.70
2024-01-22T05:10:45.679Z,3.60
2024-01-22T05:13:14.795Z,4.30
2024-01-22T05:15:42.788Z,4.13
2024-01-22T05:18:11.949Z,4.05
2024-01-22T05:20:39.986Z,3.55
2024-01-22T05:23:08.111Z,5.30
2024-01-22T05:25:35.875Z,4.47
2024-01-22T05:28:03.628Z,5.00
2024-01-22T05:30:31.445Z,4.65
2024-01-22T05:32:59.263Z,3.03
2024-01-22T05:35:28.493Z,2.40
2024-01-22T05:37:56.293Z,4.43
2024-01-22T05:40:24.056Z,3.17
2024-01-22T05:42:51.835Z,4.15
2024-01-22T05:45:19.933Z,3.83
2024-01-22T05:47:48.102Z,4.13
2024-01-22T05:50:16.021Z,4.90
2024-01-22T05:52:45.268Z,5.18
2024-01-22T05:55:16.887Z,3.38
2024-01-22T05:57:46.305Z,4.13
2024-01-22T06:00:15.402Z,3.28
2024-01-22T06:02:43.954Z,4.22
2024-01-22T06:05:11.820Z,3.22
2024-01-22T06:07:39.817Z,5.22
2024-01-22T06:10:10.376Z,3.70
2024-01-22T06:12:38.266Z,2.85
2024-01-22T06:15:06.704Z,5.50
2024-01-22T06:17:34.887Z,4.57
2024-01-22T06:20:04.580Z,4.68
2024-01-22T06:22:34.700Z,3.92
2024-01-22T06:25:04.761Z,5.03
2024-01-22T06:27:33.970Z,3.30
2024-01-22T06:30:03.040Z,2.95
2024-01-22T06:32:31.143Z,3.88
2024-01-22T06:34:59.048Z,3.60
2024-01-22T06:37:27.051Z,2.85
2024-01-22T06:39:54.879Z,6.43
2024-01-22T06:42:27.948Z,4.28
2024-01-22T06:45:04.220Z,4.07
2024-01-22T06:47:35.132Z,3.28
2024-01-22T06:50:04.561Z,4.13
2024-01-22T06:52:32.730Z,4.63
2024-01-22T06:55:01.358Z,5.78
2024-01-22T06:57:29.344Z,3.63
2024-01-22T06:59:57.399Z,6.55
2024-01-22T07:02:27.681Z,5.28
2024-01-22T07:04:57.011Z,4.93
2024-01-22T07:09:52.625Z,7.13
2024-01-22T07:12:21.941Z,8.07
2024-01-22T07:17:18.771Z,4.38
2024-01-22T07:19:48.266Z,3.42
2024-01-22T07:22:16.217Z,1.83
2024-01-22T07:24:43.959Z,2.30
2024-01-22T07:27:11.995Z,5.65
2024-01-22T07:29:39.742Z,4.15
2024-01-22T07:32:08.295Z,7.57
2024-01-22T07:34:36.133Z,2.60
2024-01-22T07:37:05.671Z,3.50
2024-01-22T07:39:33.456Z,5.68
2024-01-22T07:42:01.278Z,2.17
2024-01-22T07:44:29.060Z,5.28
2024-01-22T07:46:57.053Z,4.32
2024-01-22T07:49:25.080Z,5.45
2024-01-22T07:51:52.961Z,4.05
2024-01-22T07:54:22.324Z,5.78
2024-01-22T07:56:50.719Z,5.97
2024-01-22T07:59:18.522Z,3.88
2024-01-22T08:01:46.299Z,4.45
2024-01-22T08:04:14.260Z,4.93
2024-01-22T08:06:42.201Z,3.95
2024-01-22T08:09:10.160Z,3.08
2024-01-22T08:11:40.437Z,4.50
2024-01-22T08:14:08.716Z,5.28
2024-01-22T08:16:36.498Z,5.80
2024-01-22T08:19:04.635Z,6.43
2024-01-22T08:21:32.706Z,5.28
2024-01-22T08:24:00.520Z,4.80
2024-01-22T08:26:28.293Z,7.05
2024-01-22T08:28:57.725Z,3.25
2024-01-22T08:31:25.521Z,6.95
2024-01-22T08:33:55.353Z,8.73
2024-01-22T08:36:23.289Z,9.07
2024-01-22T08:38:51.256Z,12.50
2024-01-22T08:41:19.122Z,8.15
2024-01-22T08:43:46.907Z,6.90
2024-01-22T08:46:16.331Z,10.05
2024-01-22T08:48:44.450Z,12.05
2024-01-22T08:51:12.323Z,12.25
2024-01-22T08:53:40.233Z,6.43
2024-01-22T08:56:08.421Z,13.23
2024-01-22T08:58:36.149Z,5.95
2024-01-22T09:01:08.431Z,9.25
2024-01-22T09:03:38.803Z,8.75
2024-01-22T09:08:35.641Z,8.43
2024-01-22T09:11:03.772Z,13.13
2024-01-22T09:13:31.655Z,6.65
2024-01-22T09:15:59.406Z,8.75
2024-01-22T09:18:27.932Z,16.50
2024-01-22T09:20:57.351Z,7.32
2024-01-22T09:25:52.872Z,8.43
2024-01-22T09:28:22.432Z,9.88
2024-01-22T09:30:50.354Z,5.35
2024-01-22T09:33:18.262Z,6.38
2024-01-22T09:35:46.139Z,11.13
2024-01-22T09:38:15.355Z,10.40
2024-01-22T09:40:43.203Z,10.32
2024-01-22T09:43:11.067Z,6.22
2024-01-22T09:45:39.162Z,12.43
2024-01-22T09:48:08.452Z,4.72
2024-01-22T09:50:36.484Z,6.88
2024-01-22T09:53:10.834Z,8.60
2024-01-22T09:55:41.656Z,9.38
2024-01-22T09:58:09.913Z,11.85
2024-01-22T10:00:38.761Z,8.50
2024-01-22T10:03:07.183Z,11.75
2024-01-22T10:05:35.441Z,10.55
2024-01-22T10:08:04.207Z,4.97
2024-01-22T10:10:32.995Z,8.00
2024-01-22T10:13:06.494Z,7.50
2024-01-22T10:15:35.144Z,9.38
2024-01-22T10:18:13.735Z,8.02
2024-01-22T10:20:43.015Z,6.53
2024-01-22T10:23:10.905Z,8.88
2024-01-22T10:25:38.741Z,11.70
2024-01-22T10:28:12.324Z,14.48
2024-01-22T10:30:41.079Z,12.52
2024-01-22T10:33:16.189Z,17.10
2024-01-22T10:35:44.392Z,8.20
2024-01-22T10:38:14.523Z,10.50
2024-01-22T10:40:42.512Z,8.55
2024-01-22T10:43:28.296Z,15.82
2024-01-22T10:45:58.260Z,16.67
2024-01-22T10:48:37.956Z,13.23
2024-01-22T10:51:12.376Z,17.25
2024-01-22T10:56:14.702Z,15.43
2024-01-22T10:58:44.701Z,16.33
2024-01-22T11:01:16.677Z,6.78
2024-01-22T11:03:49.317Z,16.70
2024-01-22T11:06:22.337Z,14.60
2024-01-22T11:08:51.475Z,21.92
2024-01-22T11:11:21.583Z,15.63
2024-01-22T11:13:53.234Z,24.60
2024-01-22T11:16:22.103Z,23.13
2024-01-22T11:18:57.906Z,13.57
2024-01-22T11:21:26.810Z,23.95
2024-01-22T11:24:15.160Z,19.65
2024-01-22T11:26:46.241Z,16.42
2024-01-22T11:29:18.214Z,17.02
2024-01-22T11:31:48.050Z,29.35
2024-01-22T11:34:46.952Z,31.60
2024-01-22T11:37:34.624Z,15.45
2024-01-22T11:40:03.471Z,22.80
2024-01-22T11:42:31.985Z,25.38
2024-01-22T11:45:12.858Z,31.75
2024-01-22T11:47:41.335Z,20.55
2024-01-22T11:50:10.219Z,23.45
2024-01-22T11:52:39.439Z,20.17
2024-01-22T11:55:08.730Z,22.90
2024-01-22T11:57:38.758Z,28.83
2024-01-22T12:00:12.228Z,18.92
2024-01-22T12:02:41.134Z,32.97
2024-01-22T12:05:11.248Z,20.45
2024-01-22T12:07:40.832Z,10.73
2024-01-22T12:10:20.279Z,13.15
2024-01-22T12:12:55.814Z,28.83
2024-01-22T12:17:54.072Z,19.98
2024-01-22T12:20:22.839Z,16.20
2024-01-22T12:23:00.627Z,19.70
2024-01-22T12:25:36.149Z,18.27
2024-01-22T12:28:15.437Z,24.88
2024-01-22T12:30:48.239Z,25.10
2024-01-22T12:33:26.375Z,21.00
2024-01-22T12:36:09.649Z,18.02
2024-01-22T12:41:10.982Z,21.63
2024-01-22T12:43:40.372Z,13.38
2024-01-22T12:46:11.333Z,14.05
2024-01-22T12:48:40.504Z,18.52
2024-01-22T12:51:10.049Z,13.63
2024-01-22T12:53:39.316Z,17.60
2024-01-22T12:56:08.119Z,23.40
2024-01-22T12:58:37.778Z,21.48
2024-01-22T13:01:06.370Z,15.60
2024-01-22T13:03:36.137Z,16.42
2024-01-22T13:06:04.796Z,19.35
2024-01-22T13:08:34.895Z,14.57
2024-01-22T13:11:03.960Z,21.25
2024-01-22T13:13:32.352Z,17.65
2024-01-22T13:16:12.765Z,18.38
2024-01-22T13:18:47.732Z,18.33
2024-01-22T13:21:17.367Z,19.75
2024-01-22T13:23:46.645Z,17.27
2024-01-22T13:26:15.114Z,16.38
2024-01-22T13:28:44.529Z,10.50
2024-01-22T13:31:12.605Z,15.55
2024-01-22T13:33:44.968Z,14.05
2024-01-22T13:36:18.284Z,13.55
2024-01-22T13:38:47.690Z,14.77
2024-01-22T13:41:17.781Z,21.48
2024-01-22T13:43:46.125Z,13.85
2024-01-22T13:46:14.399Z,20.13
2024-01-22T13:48:45.684Z,20.63
2024-01-22T13:51:16.654Z,12.45
2024-01-22T13:53:46.803Z,22.88
2024-01-22T13:56:14.942Z,12.48
2024-01-22T13:58:44.188Z,17.30
2024-01-22T14:01:12.183Z,14.15
2024-01-22T14:03:40.555Z,12.05
2024-01-22T14:06:09.354Z,13.20
2024-01-22T14:08:37.378Z,12.55
2024-01-22T14:11:07.226Z,19.83
2024-01-22T14:13:35.247Z,16.83
2024-01-22T14:16:04.155Z,17.67
2024-01-22T14:18:33.368Z,15.60
2024-01-22T14:21:01.417Z,9.43
2024-01-22T14:23:30.916Z,14.85
2024-01-22T14:28:28.219Z,15.68
2024-01-22T14:30:56.695Z,11.43
2024-01-22T14:33:25.056Z,17.52
2024-01-22T14:35:54.624Z,11.48
2024-01-22T14:38:29.417Z,7.35
2024-01-22T14:41:01.302Z,14.20
2024-01-22T14:43:34.202Z,15.00
2024-01-22T14:46:02.036Z,15.18
2024-01-22T14:48:32.984Z,15.27
2024-01-22T14:51:01.674Z,15.80
2024-01-22T14:53:30.280Z,10.60
2024-01-22T14:55:58.160Z,9.88
2024-01-22T14:58:25.927Z,19.73
2024-01-22T15:00:55.219Z,12.95
2024-01-22T15:03:24.343Z,21.40
2024-01-22T15:05:52.218Z,16.75
2024-01-22T15:08:20.147Z,6.35
2024-01-22T15:10:47.935Z,19.52
2024-01-22T15:13:15.928Z,7.30
2024-01-22T15:15:43.774Z,19.17
2024-01-22T15:18:13.256Z,10.55
2024-01-22T15:20:43.242Z,14.35
2024-01-22T15:23:11.298Z,23.63
2024-01-22T15:25:40.126Z,20.80
2024-01-22T15:28:08.620Z,16.95
2024-01-22T15:30:36.615Z,12.45
2024-01-22T15:33:05.127Z,8.80
2024-01-22T15:35:34.450Z,9.73
2024-01-22T15:38:03.868Z,18.58
2024-01-22T15:40:32.252Z,16.02
2024-01-22T15:43:00.599Z,17.63
2024-01-22T15:45:28.494Z,10.07
2024-01-22T15:47:56.559Z,13.55
2024-01-22T15:50:27.099Z,18.23
2024-01-22T15:52:58.896Z,12.98
2024-01-22T15:55:26.842Z,16.23
2024-01-22T15:57:54.617Z,18.23
2024-01-22T16:00:23.881Z,13.98
2024-01-22T16:02:52.143Z,9.30
2024-01-22T16:05:20.565Z,22.70
2024-01-22T16:07:48.514Z,15.70
2024-01-22T16:10:18.048Z,19.55
2024-01-22T16:12:46.455Z,16.05
2024-01-22T16:15:15.107Z,14.00
2024-01-22T16:17:44.009Z,10.27
2024-01-22T16:20:14.554Z,15.48
2024-01-22T16:22:42.746Z,18.92
2024-01-22T16:25:10.752Z,10.88
2024-01-22T16:27:40.324Z,15.52
2024-01-22T16:30:10.224Z,12.88
2024-01-22T16:37:34.644Z,21.17
2024-01-22T16:40:03.232Z,17.17
2024-01-22T16:42:31.300Z,17.52
2024-01-22T16:45:00.918Z,20.85
2024-01-22T16:47:29.000Z,13.25
2024-01-22T16:49:58.184Z,13.15
2024-01-22T16:52:26.381Z,15.10
2024-01-22T16:54:54.831Z,11.45
2024-01-22T16:57:22.702Z,18.35
2024-01-22T16:59:50.572Z,16.27
2024-01-22T17:02:20.378Z,16.52
2024-01-22T17:04:48.271Z,15.82
2024-01-22T17:07:16.826Z,18.52
2024-01-22T17:09:45.686Z,18.25
2024-01-22T17:12:14.084Z,14.93
2024-01-22T17:14:42.757Z,17.58
2024-01-22T17:17:10.823Z,18.45
2024-01-22T17:19:41.661Z,12.18
2024-01-22T17:22:10.542Z,14.57
2024-01-22T17:24:38.527Z,14.13
2024-01-22T17:27:06.992Z,25.17
2024-01-22T17:29:35.247Z,17.25
2024-01-22T17:32:03.742Z,13.20
2024-01-22T17:34:31.726Z,16.67
2024-01-22T17:37:00.980Z,18.92
2024-01-22T17:39:28.887Z,7.43
2024-01-22T17:41:57.322Z,16.70
2024-01-22T17:44:25.223Z,10.20
2024-01-22T17:46:53.062Z,13.80
2024-01-22T17:49:21.025Z,12.18
2024-01-22T17:51:48.933Z,20.98
2024-01-22T17:54:18.127Z,15.55
2024-01-22T17:56:46.029Z,12.90
2024-01-22T17:59:14.988Z,9.23
2024-01-22T18:01:42.817Z,17.88
2024-01-22T18:04:10.601Z,19.45
2024-01-22T18:06:38.433Z,16.10
2024-01-22T18:09:07.466Z,13.13
2024-01-22T18:11:36.775Z,11.77
2024-01-22T18:14:04.839Z,18.05
2024-01-22T18:16:32.680Z,13.63
2024-01-22T18:19:00.680Z,8.85
2024-01-22T18:21:28.627Z,17.27
2024-01-22T18:23:56.908Z,15.68
2024-01-22T18:26:24.873Z,14.23
2024-01-22T18:28:54.044Z,13.25
2024-01-22T18:31:21.828Z,17.33
2024-01-22T18:33:49.674Z,21.83
2024-01-22T18:36:17.924Z,12.60
2024-01-22T18:38:45.684Z,13.18
2024-01-22T18:41:21.921Z,12.55
2024-01-22T18:43:49.660Z,7.47
2024-01-22T18:46:23.577Z,9.10
2024-01-22T18:48:52.460Z,18.60
2024-01-22T18:51:20.446Z,15.25
2024-01-22T18:53:48.335Z,14.50
2024-01-22T18:56:16.583Z,22.38
2024-01-22T18:58:44.417Z,20.67
2024-01-22T19:01:12.215Z,17.35
2024-01-22T19:03:41.478Z,20.27
2024-01-22T19:06:09.406Z,14.85
2024-01-22T19:08:37.797Z,18.95
2024-01-22T19:11:06.324Z,20.10
2024-01-22T19:13:34.162Z,24.42
2024-01-22T19:16:01.904Z,24.83
2024-01-22T19:18:29.770Z,23.55
2024-01-22T19:20:58.987Z,13.98
2024-01-22T19:23:26.769Z,14.40
2024-01-22T19:25:54.602Z,24.15
2024-01-22T19:28:22.398Z,22.92
2024-01-22T19:30:52.717Z,11.80
2024-01-22T19:33:21.169Z,19.25
2024-01-22T19:35:49.211Z,21.88
2024-01-22T19:38:20.268Z,22.38
2024-01-22T19:40:48.282Z,14.50
2024-01-22T19:43:16.114Z,15.25
2024-01-22T19:45:44.304Z,26.23
2024-01-22T19:48:12.143Z,12.07
2024-01-22T19:50:39.983Z,18.77
2024-01-22T19:53:07.774Z,26.45
2024-01-22T19:55:36.860Z,19.23
2024-01-22T19:58:05.072Z,17.83
2024-01-22T20:00:33.084Z,17.23
2024-01-22T20:03:00.912Z,13.38
2024-01-22T20:05:28.754Z,16.20
2024-01-22T20:07:56.683Z,26.13
2024-01-22T20:10:26.042Z,23.65
2024-01-22T20:15:23.007Z,11.50
2024-01-22T20:17:50.829Z,14.32
2024-01-22T20:20:19.383Z,13.77
2024-01-22T20:22:47.949Z,12.93
2024-01-22T20:25:15.988Z,5.18
2024-01-22T20:27:43.805Z,19.45
2024-01-22T20:30:13.979Z,13.45
2024-01-22T20:32:43.233Z,16.98
2024-01-22T20:35:11.123Z,23.35
2024-01-22T20:37:39.386Z,15.93
2024-01-22T20:40:09.230Z,12.20
2024-01-22T20:42:37.347Z,21.50
2024-01-22T20:45:06.581Z,28.45
2024-01-22T20:47:35.834Z,15.27
2024-01-22T20:50:04.437Z,18.73
2024-01-22T20:52:32.253Z,13.68
2024-01-22T20:55:00.239Z,18.65
2024-01-22T20:57:28.364Z,30.35
2024-01-22T20:59:56.951Z,18.55
2024-01-22T21:02:25.110Z,14.65
2024-01-22T21:04:54.336Z,17.42
2024-01-22T21:07:26.272Z,24.90
2024-01-22T21:09:54.242Z,22.33
2024-01-22T21:12:22.610Z,20.40
2024-01-22T21:14:50.456Z,19.85
2024-01-22T21:17:18.332Z,16.50
2024-01-22T21:19:46.437Z,21.30
2024-01-22T21:22:15.668Z,16.13
2024-01-22T21:24:43.498Z,26.05
2024-01-22T21:27:11.383Z,8.00
2024-01-22T21:29:39.369Z,25.85
2024-01-22T21:32:07.398Z,17.90
2024-01-22T21:34:35.419Z,27.48
2024-01-22T21:37:03.423Z,16.95
2024-01-22T21:39:32.683Z,11.68
2024-01-22T21:42:00.813Z,18.08
2024-01-22T21:44:29.491Z,20.15
2024-01-22T21:46:57.338Z,20.70
2024-01-22T21:49:25.223Z,15.20
2024-01-22T21:51:53.087Z,12.73
2024-01-22T21:54:20.895Z,12.50
2024-01-22T21:56:50.060Z,23.13
2024-01-22T21:59:17.859Z,15.25
2024-01-22T22:01:45.947Z,15.63
2024-01-22T22:04:14.142Z,13.23
2024-01-22T22:06:41.230Z,16.40
2024-01-22T22:09:09.380Z,9.65
2024-01-22T22:11:37.490Z,13.45
2024-01-22T22:14:07.195Z,12.43
2024-01-22T22:16:35.398Z,16.70
2024-01-22T22:19:03.628Z,13.32
2024-01-22T22:21:31.942Z,17.98
2024-01-22T22:24:00.721Z,22.45
2024-01-22T22:26:29.092Z,17.33
2024-01-22T22:28:56.917Z,12.23
2024-01-22T22:31:28.779Z,13.93
2024-01-22T22:33:56.633Z,2.50
2024-01-22T22:36:24.539Z,8.27
2024-01-22T22:38:52.489Z,8.40
2024-01-22T22:41:20.290Z,6.90
2024-01-22T22:43:48.027Z,6.63
2024-01-22T22:46:15.948Z,8.73
2024-01-22T22:48:46.189Z,10.82
2024-01-22T22:51:14.874Z,11.95
2024-01-22T22:53:42.755Z,9.50
2024-01-22T22:56:10.676Z,4.72
2024-01-22T22:58:38.852Z,5.63
2024-01-22T23:01:06.734Z,14.25
2024-01-22T23:03:34.706Z,10.15
2024-01-22T23:06:04.000Z,6.80
2024-01-22T23:08:32.136Z,11.02
2024-01-22T23:10:59.965Z,10.57
2024-01-22T23:13:27.964Z,9.90
2024-01-22T23:15:56.256Z,10.65
2024-01-22T23:18:24.091Z,8.95
2024-01-22T23:20:52.794Z,11.40
2024-01-22T23:23:21.910Z,14.35
2024-01-22T23:25:49.723Z,10.70
2024-01-22T23:28:17.527Z,18.25
2024-01-22T23:30:45.360Z,19.08
2024-01-22T23:33:13.213Z,12.43
2024-01-22T23:35:41.090Z,13.40
2024-01-22T23:38:08.895Z,10.57
2024-01-22T23:40:38.028Z,12.98
2024-01-22T23:43:05.825Z,11.23
2024-01-22T23:45:33.866Z,19.45
2024-01-22T23:48:01.978Z,8.95
2024-01-22T23:50:29.731Z,12.82
2024-01-22T23:52:57.451Z,16.17
2024-01-22T23:55:25.185Z,22.38
2024-01-22T23:57:54.302Z,15.82
